sensor_id;sensor_type;location;lat;lon;timestamp;P1;durP1;ratioP1;P2;durP2;ratioP2
73575;SDS011;61859;49.204;8.140;2024-01-11T00:00:34;22.03;;;11.13;;
73575;SDS011;61859;49.204;8.140;2024-01-11T00:03:00;19.13;;;11.43;;
73575;SDS011;61859;49.204;8.140;2024-01-11T00:05:25;23.50;;;11.83;;
73575;SDS011;61859;49.204;8.140;2024-01-11T00:07:51;18.93;;;11.00;;
73575;SDS011;61859;49.204;8.140;2024-01-11T00:10:16;19.60;;;10.80;;
73575;SDS011;61859;49.204;8.140;2024-01-11T00:12:42;20.97;;;11.90;;
73575;SDS011;61859;49.204;8.140;2024-01-11T00:15:07;20.80;;;11.03;;
73575;SDS011;61859;49.204;8.140;2024-01-11T00:17:33;17.57;;;10.40;;
73575;SDS011;61859;49.204;8.140;2024-01-11T00:19:59;20.90;;;11.33;;
73575;SDS011;61859;49.204;8.140;2024-01-11T00:22:25;22.50;;;11.33;;
73575;SDS011;61859;49.204;8.140;2024-01-11T00:24:51;18.87;;;10.73;;
73575;SDS011;61859;49.204;8.140;2024-01-11T00:27:16;21.13;;;12.47;;
73575;SDS011;61859;49.204;8.140;2024-01-11T00:29:42;24.90;;;10.93;;
73575;SDS011;61859;49.204;8.140;2024-01-11T00:32:07;19.13;;;10.97;;
73575;SDS011;61859;49.204;8.140;2024-01-11T00:34:33;18.37;;;10.73;;
73575;SDS011;61859;49.204;8.140;2024-01-11T00:36:58;17.60;;;10.23;;
73575;SDS011;61859;49.204;8.140;2024-01-11T00:39:24;21.37;;;12.40;;
73575;SDS011;61859;49.204;8.140;2024-01-11T00:41:49;15.97;;;9.87;;
73575;SDS011;61859;49.204;8.140;2024-01-11T00:44:16;21.43;;;11.43;;
73575;SDS011;61859;49.204;8.140;2024-01-11T00:46:41;24.33;;;11.50;;
73575;SDS011;61859;49.204;8.140;2024-01-11T00:49:07;20.03;;;10.93;;
73575;SDS011;61859;49.204;8.140;2024-01-11T00:51:33;22.73;;;11.93;;
73575;SDS011;61859;49.204;8.140;2024-01-11T00:53:58;18.23;;;9.30;;
73575;SDS011;61859;49.204;8.140;2024-01-11T00:56:24;17.37;;;10.40;;
73575;SDS011;61859;49.204;8.140;2024-01-11T00:58:49;18.73;;;10.87;;
73575;SDS011;61859;49.204;8.140;2024-01-11T01:01:15;20.57;;;11.07;;
73575;SDS011;61859;49.204;8.140;2024-01-11T01:03:40;19.33;;;10.83;;
73575;SDS011;61859;49.204;8.140;2024-01-11T01:06:07;17.73;;;10.67;;
73575;SDS011;61859;49.204;8.140;2024-01-11T01:08:33;18.80;;;10.47;;
73575;SDS011;61859;49.204;8.140;2024-01-11T01:10:58;21.43;;;11.27;;
73575;SDS011;61859;49.204;8.140;2024-01-11T01:13:24;24.23;;;12.10;;
73575;SDS011;61859;49.204;8.140;2024-01-11T01:15:49;18.87;;;10.60;;
73575;SDS011;61859;49.204;8.140;2024-01-11T01:18:15;18.67;;;10.70;;
73575;SDS011;61859;49.204;8.140;2024-01-11T01:20:40;20.73;;;10.73;;
73575;SDS011;61859;49.204;8.140;2024-01-11T01:23:06;20.53;;;10.30;;
73575;SDS011;61859;49.204;8.140;2024-01-11T01:25:31;19.57;;;11.00;;
73575;SDS011;61859;49.204;8.140;2024-01-11T01:28:00;20.97;;;11.07;;
73575;SDS011;61859;49.204;8.140;2024-01-11T01:30:26;15.93;;;9.53;;
73575;SDS011;61859;49.204;8.140;2024-01-11T01:32:52;23.70;;;11.60;;
73575;SDS011;61859;49.204;8.140;2024-01-11T01:35:18;21.47;;;11.87;;
73575;SDS011;61859;49.204;8.140;2024-01-11T01:37:43;19.53;;;10.57;;
73575;SDS011;61859;49.204;8.140;2024-01-11T01:40:09;18.33;;;9.83;;
73575;SDS011;61859;49.204;8.140;2024-01-11T01:42:35;21.10;;;11.37;;
73575;SDS011;61859;49.204;8.140;2024-01-11T01:45:01;21.80;;;10.67;;
73575;SDS011;61859;49.204;8.140;2024-01-11T01:47:27;21.97;;;11.87;;
73575;SDS011;61859;49.204;8.140;2024-01-11T01:49:53;25.73;;;12.20;;
73575;SDS011;61859;49.204;8.140;2024-01-11T01:52:20;20.03;;;11.47;;
73575;SDS011;61859;49.204;8.140;2024-01-11T01:54:47;21.63;;;11.50;;
73575;SDS011;61859;49.204;8.140;2024-01-11T01:57:14;21.60;;;11.47;;
73575;SDS011;61859;49.204;8.140;2024-01-11T01:59:43;20.53;;;11.17;;
73575;SDS011;61859;49.204;8.140;2024-01-11T02:02:10;21.40;;;11.73;;
73575;SDS011;61859;49.204;8.140;2024-01-11T02:04:37;17.43;;;10.50;;
73575;SDS011;61859;49.204;8.140;2024-01-11T02:07:03;20.60;;;11.40;;
73575;SDS011;61859;49.204;8.140;2024-01-11T02:09:30;20.47;;;10.87;;
73575;SDS011;61859;49.204;8.140;2024-01-11T02:11:56;18.30;;;10.07;;
73575;SDS011;61859;49.204;8.140;2024-01-11T02:14:22;21.30;;;11.97;;
73575;SDS011;61859;49.204;8.140;2024-01-11T02:16:49;23.70;;;12.00;;
73575;SDS011;61859;49.204;8.140;2024-01-11T02:19:14;19.00;;;11.50;;
73575;SDS011;61859;49.204;8.140;2024-01-11T02:21:43;19.73;;;11.10;;
73575;SDS011;61859;49.204;8.140;2024-01-11T02:24:09;23.07;;;11.80;;
73575;SDS011;61859;49.204;8.140;2024-01-11T02:26:35;21.40;;;12.07;;
73575;SDS011;61859;49.204;8.140;2024-01-11T02:29:00;22.47;;;11.33;;
73575;SDS011;61859;49.204;8.140;2024-01-11T02:31:26;21.33;;;11.70;;
73575;SDS011;61859;49.204;8.140;2024-01-11T02:33:52;22.60;;;11.53;;
73575;SDS011;61859;49.204;8.140;2024-01-11T02:36:20;21.17;;;11.90;;
73575;SDS011;61859;49.204;8.140;2024-01-11T02:38:46;21.93;;;11.37;;
73575;SDS011;61859;49.204;8.140;2024-01-11T02:41:12;20.70;;;11.90;;
73575;SDS011;61859;49.204;8.140;2024-01-11T02:43:45;25.03;;;12.20;;
73575;SDS011;61859;49.204;8.140;2024-01-11T02:46:12;23.10;;;11.77;;
73575;SDS011;61859;49.204;8.140;2024-01-11T02:48:38;19.50;;;12.17;;
73575;SDS011;61859;49.204;8.140;2024-01-11T02:51:03;21.93;;;12.77;;
73575;SDS011;61859;49.204;8.140;2024-01-11T02:53:29;22.60;;;11.93;;
73575;SDS011;61859;49.204;8.140;2024-01-11T02:55:59;22.80;;;12.77;;
73575;SDS011;61859;49.204;8.140;2024-01-11T02:58:25;21.10;;;11.67;;
73575;SDS011;61859;49.204;8.140;2024-01-11T03:00:50;19.47;;;10.93;;
73575;SDS011;61859;49.204;8.140;2024-01-11T03:03:16;21.67;;;11.53;;
73575;SDS011;61859;49.204;8.140;2024-01-11T03:05:41;26.00;;;12.43;;
73575;SDS011;61859;49.204;8.140;2024-01-11T03:08:07;19.40;;;11.10;;
73575;SDS011;61859;49.204;8.140;2024-01-11T03:10:32;22.43;;;11.40;;
73575;SDS011;61859;49.204;8.140;2024-01-11T03:12:58;23.07;;;12.93;;
73575;SDS011;61859;49.204;8.140;2024-01-11T03:15:23;22.00;;;11.87;;
73575;SDS011;61859;49.204;8.140;2024-01-11T03:17:49;23.60;;;12.33;;
73575;SDS011;61859;49.204;8.140;2024-01-11T03:20:14;23.10;;;11.87;;
73575;SDS011;61859;49.204;8.140;2024-01-11T03:22:47;21.73;;;13.17;;
73575;SDS011;61859;49.204;8.140;2024-01-11T03:25:12;21.77;;;11.97;;
73575;SDS011;61859;49.204;8.140;2024-01-11T03:27:38;26.73;;;12.30;;
73575;SDS011;61859;49.204;8.140;2024-01-11T03:30:03;20.10;;;11.83;;
73575;SDS011;61859;49.204;8.140;2024-01-11T03:32:29;23.17;;;12.43;;
73575;SDS011;61859;49.204;8.140;2024-01-11T03:34:55;24.57;;;11.40;;
73575;SDS011;61859;49.204;8.140;2024-01-11T03:37:20;22.13;;;12.80;;
73575;SDS011;61859;49.204;8.140;2024-01-11T03:39:46;22.17;;;12.03;;
73575;SDS011;61859;49.204;8.140;2024-01-11T03:42:12;20.50;;;11.37;;
73575;SDS011;61859;49.204;8.140;2024-01-11T03:44:37;22.30;;;12.10;;
73575;SDS011;61859;49.204;8.140;2024-01-11T03:47:03;23.27;;;12.33;;
73575;SDS011;61859;49.204;8.140;2024-01-11T03:49:29;27.13;;;12.03;;
73575;SDS011;61859;49.204;8.140;2024-01-11T03:51:54;24.27;;;12.43;;
73575;SDS011;61859;49.204;8.140;2024-01-11T03:54:20;26.00;;;13.20;;
73575;SDS011;61859;49.204;8.140;2024-01-11T03:56:45;25.10;;;13.37;;
73575;SDS011;61859;49.204;8.140;2024-01-11T03:59:11;19.60;;;11.63;;
73575;SDS011;61859;49.204;8.140;2024-01-11T04:01:40;23.67;;;13.27;;
73575;SDS011;61859;49.204;8.140;2024-01-11T04:04:06;23.60;;;12.03;;
73575;SDS011;61859;49.204;8.140;2024-01-11T04:06:31;25.07;;;12.97;;
73575;SDS011;61859;49.204;8.140;2024-01-11T04:08:57;23.73;;;13.03;;
73575;SDS011;61859;49.204;8.140;2024-01-11T04:11:23;22.30;;;12.53;;
73575;SDS011;61859;49.204;8.140;2024-01-11T04:13:51;26.73;;;13.97;;
73575;SDS011;61859;49.204;8.140;2024-01-11T04:16:17;32.30;;;13.70;;
73575;SDS011;61859;49.204;8.140;2024-01-11T04:18:43;21.40;;;11.87;;
73575;SDS011;61859;49.204;8.140;2024-01-11T04:21:19;22.07;;;13.53;;
73575;SDS011;61859;49.204;8.140;2024-01-11T04:23:46;29.03;;;12.93;;
73575;SDS011;61859;49.204;8.140;2024-01-11T04:26:12;30.83;;;12.67;;
73575;SDS011;61859;49.204;8.140;2024-01-11T04:28:37;20.83;;;11.33;;
73575;SDS011;61859;49.204;8.140;2024-01-11T04:31:03;25.63;;;12.70;;
73575;SDS011;61859;49.204;8.140;2024-01-11T04:33:28;25.03;;;12.27;;
73575;SDS011;61859;49.204;8.140;2024-01-11T04:35:54;21.87;;;12.60;;
73575;SDS011;61859;49.204;8.140;2024-01-11T04:38:19;22.27;;;12.13;;
73575;SDS011;61859;49.204;8.140;2024-01-11T04:40:45;20.50;;;12.03;;
73575;SDS011;61859;49.204;8.140;2024-01-11T04:43:11;23.67;;;12.43;;
73575;SDS011;61859;49.204;8.140;2024-01-11T04:45:36;24.00;;;12.43;;
73575;SDS011;61859;49.204;8.140;2024-01-11T04:48:02;27.17;;;12.30;;
73575;SDS011;61859;49.204;8.140;2024-01-11T04:50:27;25.90;;;13.10;;
73575;SDS011;61859;49.204;8.140;2024-01-11T04:52:53;24.03;;;13.37;;
73575;SDS011;61859;49.204;8.140;2024-01-11T04:55:19;25.93;;;13.17;;
73575;SDS011;61859;49.204;8.140;2024-01-11T04:57:45;24.50;;;13.37;;
73575;SDS011;61859;49.204;8.140;2024-01-11T05:00:10;24.00;;;12.80;;
73575;SDS011;61859;49.204;8.140;2024-01-11T05:02:36;21.40;;;12.03;;
73575;SDS011;61859;49.204;8.140;2024-01-11T05:05:02;20.37;;;11.63;;
73575;SDS011;61859;49.204;8.140;2024-01-11T05:07:28;27.23;;;13.10;;
73575;SDS011;61859;49.204;8.140;2024-01-11T05:09:53;24.43;;;13.40;;
73575;SDS011;61859;49.204;8.140;2024-01-11T05:12:19;25.30;;;14.53;;
73575;SDS011;61859;49.204;8.140;2024-01-11T05:14:44;27.97;;;13.17;;
73575;SDS011;61859;49.204;8.140;2024-01-11T05:17:10;21.93;;;12.00;;
73575;SDS011;61859;49.204;8.140;2024-01-11T05:19:35;29.10;;;13.37;;
73575;SDS011;61859;49.204;8.140;2024-01-11T05:22:01;21.80;;;12.37;;
73575;SDS011;61859;49.204;8.140;2024-01-11T05:24:26;24.30;;;13.03;;
73575;SDS011;61859;49.204;8.140;2024-01-11T05:26:52;25.23;;;13.70;;
73575;SDS011;61859;49.204;8.140;2024-01-11T05:29:17;28.67;;;14.23;;
73575;SDS011;61859;49.204;8.140;2024-01-11T05:31:43;23.60;;;13.03;;
73575;SDS011;61859;49.204;8.140;2024-01-11T05:34:08;29.37;;;14.17;;
73575;SDS011;61859;49.204;8.140;2024-01-11T05:36:37;23.20;;;13.63;;
73575;SDS011;61859;49.204;8.140;2024-01-11T05:39:02;22.77;;;12.67;;
73575;SDS011;61859;49.204;8.140;2024-01-11T05:41:28;23.70;;;13.57;;
73575;SDS011;61859;49.204;8.140;2024-01-11T05:43:53;26.30;;;13.57;;
73575;SDS011;61859;49.204;8.140;2024-01-11T05:46:19;20.40;;;12.67;;
73575;SDS011;61859;49.204;8.140;2024-01-11T05:48:45;24.57;;;12.40;;
73575;SDS011;61859;49.204;8.140;2024-01-11T05:51:10;24.67;;;13.27;;
73575;SDS011;61859;49.204;8.140;2024-01-11T05:53:36;24.27;;;13.07;;
73575;SDS011;61859;49.204;8.140;2024-01-11T05:56:02;27.47;;;13.83;;
73575;SDS011;61859;49.204;8.140;2024-01-11T05:58:32;21.63;;;12.33;;
73575;SDS011;61859;49.204;8.140;2024-01-11T06:00:57;25.37;;;13.53;;
73575;SDS011;61859;49.204;8.140;2024-01-11T06:03:23;26.10;;;12.80;;
73575;SDS011;61859;49.204;8.140;2024-01-11T06:05:48;22.17;;;11.87;;
73575;SDS011;61859;49.204;8.140;2024-01-11T06:08:14;23.73;;;13.83;;
73575;SDS011;61859;49.204;8.140;2024-01-11T06:10:39;21.60;;;12.90;;
73575;SDS011;61859;49.204;8.140;2024-01-11T06:13:05;26.83;;;14.27;;
73575;SDS011;61859;49.204;8.140;2024-01-11T06:15:30;22.53;;;12.53;;
73575;SDS011;61859;49.204;8.140;2024-01-11T06:17:56;26.40;;;12.50;;
73575;SDS011;61859;49.204;8.140;2024-01-11T06:20:22;23.30;;;12.80;;
73575;SDS011;61859;49.204;8.140;2024-01-11T06:22:48;32.43;;;15.27;;
73575;SDS011;61859;49.204;8.140;2024-01-11T06:25:13;23.93;;;13.03;;
73575;SDS011;61859;49.204;8.140;2024-01-11T06:27:39;25.73;;;13.30;;
73575;SDS011;61859;49.204;8.140;2024-01-11T06:30:07;24.70;;;13.23;;
73575;SDS011;61859;49.204;8.140;2024-01-11T06:32:33;27.27;;;13.73;;
73575;SDS011;61859;49.204;8.140;2024-01-11T06:34:59;22.10;;;13.27;;
73575;SDS011;61859;49.204;8.140;2024-01-11T06:37:25;22.47;;;13.57;;
73575;SDS011;61859;49.204;8.140;2024-01-11T06:39:50;24.37;;;13.60;;
73575;SDS011;61859;49.204;8.140;2024-01-11T06:42:16;23.73;;;13.20;;
73575;SDS011;61859;49.204;8.140;2024-01-11T06:44:42;26.87;;;13.33;;
73575;SDS011;61859;49.204;8.140;2024-01-11T06:47:07;24.40;;;13.63;;
73575;SDS011;61859;49.204;8.140;2024-01-11T06:49:33;24.80;;;13.37;;
73575;SDS011;61859;49.204;8.140;2024-01-11T06:51:59;29.57;;;13.00;;
73575;SDS011;61859;49.204;8.140;2024-01-11T06:54:24;20.67;;;12.13;;
73575;SDS011;61859;49.204;8.140;2024-01-11T06:56:50;22.77;;;12.50;;
73575;SDS011;61859;49.204;8.140;2024-01-11T06:59:16;24.90;;;13.13;;
73575;SDS011;61859;49.204;8.140;2024-01-11T07:01:41;25.10;;;12.83;;
73575;SDS011;61859;49.204;8.140;2024-01-11T07:04:07;26.83;;;13.87;;
73575;SDS011;61859;49.204;8.140;2024-01-11T07:06:32;24.63;;;13.70;;
73575;SDS011;61859;49.204;8.140;2024-01-11T07:08:58;23.67;;;13.10;;
73575;SDS011;61859;49.204;8.140;2024-01-11T07:11:24;26.73;;;13.90;;
73575;SDS011;61859;49.204;8.140;2024-01-11T07:13:49;25.70;;;14.00;;
73575;SDS011;61859;49.204;8.140;2024-01-11T07:16:15;33.60;;;14.80;;
73575;SDS011;61859;49.204;8.140;2024-01-11T07:18:40;21.57;;;12.73;;
73575;SDS011;61859;49.204;8.140;2024-01-11T07:21:06;22.13;;;12.33;;
73575;SDS011;61859;49.204;8.140;2024-01-11T07:23:31;23.77;;;13.50;;
73575;SDS011;61859;49.204;8.140;2024-01-11T07:25:57;29.80;;;15.53;;
73575;SDS011;61859;49.204;8.140;2024-01-11T07:28:23;27.07;;;14.50;;
73575;SDS011;61859;49.204;8.140;2024-01-11T07:30:50;27.37;;;13.70;;
73575;SDS011;61859;49.204;8.140;2024-01-11T07:33:18;24.80;;;13.83;;
73575;SDS011;61859;49.204;8.140;2024-01-11T07:35:44;25.37;;;14.07;;
73575;SDS011;61859;49.204;8.140;2024-01-11T07:38:10;27.73;;;14.07;;
73575;SDS011;61859;49.204;8.140;2024-01-11T07:40:36;28.23;;;13.87;;
73575;SDS011;61859;49.204;8.140;2024-01-11T07:43:01;28.67;;;14.73;;
73575;SDS011;61859;49.204;8.140;2024-01-11T07:45:28;27.90;;;14.10;;
73575;SDS011;61859;49.204;8.140;2024-01-11T07:47:55;26.30;;;14.77;;
73575;SDS011;61859;49.204;8.140;2024-01-11T07:50:20;29.73;;;14.63;;
73575;SDS011;61859;49.204;8.140;2024-01-11T07:52:46;23.23;;;13.67;;
73575;SDS011;61859;49.204;8.140;2024-01-11T07:55:12;25.67;;;13.27;;
73575;SDS011;61859;49.204;8.140;2024-01-11T07:57:38;23.83;;;13.93;;
73575;SDS011;61859;49.204;8.140;2024-01-11T08:00:04;31.93;;;15.10;;
73575;SDS011;61859;49.204;8.140;2024-01-11T08:02:34;26.17;;;15.07;;
73575;SDS011;61859;49.204;8.140;2024-01-11T08:04:59;30.20;;;15.67;;
73575;SDS011;61859;49.204;8.140;2024-01-11T08:07:25;26.57;;;14.70;;
73575;SDS011;61859;49.204;8.140;2024-01-11T08:09:55;29.20;;;14.80;;
73575;SDS011;61859;49.204;8.140;2024-01-11T08:12:21;30.10;;;14.23;;
73575;SDS011;61859;49.204;8.140;2024-01-11T08:14:46;26.77;;;14.93;;
73575;SDS011;61859;49.204;8.140;2024-01-11T08:17:13;34.77;;;16.27;;
73575;SDS011;61859;49.204;8.140;2024-01-11T08:19:39;31.27;;;16.93;;
73575;SDS011;61859;49.204;8.140;2024-01-11T08:22:05;26.63;;;15.03;;
73575;SDS011;61859;49.204;8.140;2024-01-11T08:24:31;29.73;;;16.77;;
73575;SDS011;61859;49.204;8.140;2024-01-11T08:26:57;31.27;;;15.63;;
73575;SDS011;61859;49.204;8.140;2024-01-11T08:29:23;30.67;;;15.90;;
73575;SDS011;61859;49.204;8.140;2024-01-11T08:31:48;34.97;;;16.47;;
73575;SDS011;61859;49.204;8.140;2024-01-11T08:34:14;30.97;;;16.00;;
73575;SDS011;61859;49.204;8.140;2024-01-11T08:36:40;31.00;;;16.13;;
73575;SDS011;61859;49.204;8.140;2024-01-11T08:39:05;26.07;;;14.40;;
73575;SDS011;61859;49.204;8.140;2024-01-11T08:41:31;26.73;;;13.80;;
73575;SDS011;61859;49.204;8.140;2024-01-11T08:43:57;33.47;;;16.23;;
73575;SDS011;61859;49.204;8.140;2024-01-11T08:46:26;33.63;;;16.60;;
73575;SDS011;61859;49.204;8.140;2024-01-11T08:48:52;25.57;;;14.43;;
73575;SDS011;61859;49.204;8.140;2024-01-11T08:51:19;26.83;;;14.63;;
73575;SDS011;61859;49.204;8.140;2024-01-11T08:53:45;29.60;;;16.10;;
73575;SDS011;61859;49.204;8.140;2024-01-11T08:56:10;28.53;;;15.43;;
73575;SDS011;61859;49.204;8.140;2024-01-11T08:58:37;26.30;;;15.20;;
73575;SDS011;61859;49.204;8.140;2024-01-11T09:01:02;31.10;;;15.90;;
73575;SDS011;61859;49.204;8.140;2024-01-11T09:03:28;30.87;;;16.30;;
73575;SDS011;61859;49.204;8.140;2024-01-11T09:05:54;28.20;;;15.33;;
73575;SDS011;61859;49.204;8.140;2024-01-11T09:08:22;29.80;;;15.83;;
73575;SDS011;61859;49.204;8.140;2024-01-11T09:10:48;29.87;;;16.13;;
73575;SDS011;61859;49.204;8.140;2024-01-11T09:13:13;29.43;;;15.00;;
73575;SDS011;61859;49.204;8.140;2024-01-11T09:15:40;26.80;;;14.43;;
73575;SDS011;61859;49.204;8.140;2024-01-11T09:18:06;28.73;;;15.23;;
73575;SDS011;61859;49.204;8.140;2024-01-11T09:20:32;25.30;;;14.63;;
73575;SDS011;61859;49.204;8.140;2024-01-11T09:22:58;30.93;;;16.40;;
73575;SDS011;61859;49.204;8.140;2024-01-11T09:25:24;25.90;;;14.40;;
73575;SDS011;61859;49.204;8.140;2024-01-11T09:27:49;27.27;;;14.53;;
73575;SDS011;61859;49.204;8.140;2024-01-11T09:30:15;33.90;;;16.47;;
73575;SDS011;61859;49.204;8.140;2024-01-11T09:32:40;34.23;;;16.00;;
73575;SDS011;61859;49.204;8.140;2024-01-11T09:35:06;28.40;;;15.40;;
73575;SDS011;61859;49.204;8.140;2024-01-11T09:37:32;31.23;;;15.37;;
73575;SDS011;61859;49.204;8.140;2024-01-11T09:39:58;28.47;;;16.30;;
73575;SDS011;61859;49.204;8.140;2024-01-11T09:42:25;32.00;;;16.63;;
73575;SDS011;61859;49.204;8.140;2024-01-11T09:44:51;30.57;;;16.57;;
73575;SDS011;61859;49.204;8.140;2024-01-11T09:47:19;29.57;;;16.53;;
73575;SDS011;61859;49.204;8.140;2024-01-11T09:49:48;32.17;;;17.03;;
73575;SDS011;61859;49.204;8.140;2024-01-11T09:52:19;27.53;;;16.63;;
73575;SDS011;61859;49.204;8.140;2024-01-11T09:54:46;28.10;;;16.33;;
73575;SDS011;61859;49.204;8.140;2024-01-11T09:57:12;32.10;;;16.40;;
73575;SDS011;61859;49.204;8.140;2024-01-11T09:59:41;29.20;;;15.80;;
73575;SDS011;61859;49.204;8.140;2024-01-11T10:02:07;29.00;;;15.07;;
73575;SDS011;61859;49.204;8.140;2024-01-11T10:04:36;29.70;;;16.77;;
73575;SDS011;61859;49.204;8.140;2024-01-11T10:07:02;26.13;;;14.93;;
73575;SDS011;61859;49.204;8.140;2024-01-11T10:09:30;26.47;;;14.77;;
73575;SDS011;61859;49.204;8.140;2024-01-11T10:11:56;28.07;;;15.60;;
73575;SDS011;61859;49.204;8.140;2024-01-11T10:14:21;30.77;;;15.73;;
73575;SDS011;61859;49.204;8.140;2024-01-11T10:16:47;29.00;;;16.03;;
73575;SDS011;61859;49.204;8.140;2024-01-11T10:19:13;28.87;;;15.03;;
73575;SDS011;61859;49.204;8.140;2024-01-11T10:21:41;27.17;;;16.17;;
73575;SDS011;61859;49.204;8.140;2024-01-11T10:24:06;29.43;;;15.80;;
73575;SDS011;61859;49.204;8.140;2024-01-11T10:26:32;24.67;;;15.20;;
73575;SDS011;61859;49.204;8.140;2024-01-11T10:28:59;29.47;;;15.60;;
73575;SDS011;61859;49.204;8.140;2024-01-11T10:31:25;31.10;;;15.40;;
73575;SDS011;61859;49.204;8.140;2024-01-11T10:33:54;36.60;;;16.17;;
73575;SDS011;61859;49.204;8.140;2024-01-11T10:36:19;25.80;;;14.13;;
73575;SDS011;61859;49.204;8.140;2024-01-11T10:38:45;29.37;;;16.10;;
73575;SDS011;61859;49.204;8.140;2024-01-11T10:41:13;25.27;;;14.10;;
73575;SDS011;61859;49.204;8.140;2024-01-11T10:43:43;25.73;;;15.80;;
73575;SDS011;61859;49.204;8.140;2024-01-11T10:46:10;29.30;;;15.50;;
73575;SDS011;61859;49.204;8.140;2024-01-11T10:48:37;28.03;;;15.43;;
73575;SDS011;61859;49.204;8.140;2024-01-11T10:51:09;26.80;;;15.63;;
73575;SDS011;61859;49.204;8.140;2024-01-11T10:53:46;23.23;;;14.97;;
73575;SDS011;61859;49.204;8.140;2024-01-11T10:56:15;30.50;;;15.90;;
73575;SDS011;61859;49.204;8.140;2024-01-11T10:58:42;29.30;;;15.73;;
73575;SDS011;61859;49.204;8.140;2024-01-11T11:01:10;32.73;;;15.63;;
73575;SDS011;61859;49.204;8.140;2024-01-11T11:03:37;28.70;;;16.57;;
73575;SDS011;61859;49.204;8.140;2024-01-11T11:06:04;30.03;;;15.67;;
73575;SDS011;61859;49.204;8.140;2024-01-11T11:08:31;24.77;;;15.07;;
73575;SDS011;61859;49.204;8.140;2024-01-11T11:10:57;23.73;;;15.50;;
73575;SDS011;61859;49.204;8.140;2024-01-11T11:13:26;28.00;;;15.20;;
73575;SDS011;61859;49.204;8.140;2024-01-11T11:15:52;22.93;;;14.87;;
73575;SDS011;61859;49.204;8.140;2024-01-11T11:18:18;29.80;;;16.53;;
73575;SDS011;61859;49.204;8.140;2024-01-11T11:20:45;25.43;;;16.00;;
73575;SDS011;61859;49.204;8.140;2024-01-11T11:23:11;28.53;;;15.73;;
73575;SDS011;61859;49.204;8.140;2024-01-11T11:25:39;27.50;;;15.13;;
73575;SDS011;61859;49.204;8.140;2024-01-11T11:28:06;26.97;;;14.53;;
73575;SDS011;61859;49.204;8.140;2024-01-11T11:30:32;24.90;;;15.23;;
73575;SDS011;61859;49.204;8.140;2024-01-11T11:33:11;25.40;;;14.03;;
73575;SDS011;61859;49.204;8.140;2024-01-11T11:35:48;27.60;;;15.60;;
73575;SDS011;61859;49.204;8.140;2024-01-11T11:38:20;26.70;;;15.90;;
73575;SDS011;61859;49.204;8.140;2024-01-11T11:40:57;24.27;;;15.43;;
73575;SDS011;61859;49.204;8.140;2024-01-11T11:43:26;27.67;;;15.90;;
73575;SDS011;61859;49.204;8.140;2024-01-11T11:45:52;26.23;;;15.87;;
73575;SDS011;61859;49.204;8.140;2024-01-11T11:53:35;23.33;;;14.83;;
73575;SDS011;61859;49.204;8.140;2024-01-11T11:56:01;27.37;;;15.67;;
73575;SDS011;61859;49.204;8.140;2024-01-11T11:58:28;22.93;;;15.40;;
73575;SDS011;61859;49.204;8.140;2024-01-11T12:00:54;25.73;;;15.23;;
73575;SDS011;61859;49.204;8.140;2024-01-11T12:03:23;24.13;;;15.20;;
73575;SDS011;61859;49.204;8.140;2024-01-11T12:05:57;24.70;;;15.03;;
73575;SDS011;61859;49.204;8.140;2024-01-11T12:08:23;22.53;;;14.60;;
73575;SDS011;61859;49.204;8.140;2024-01-11T12:10:49;30.13;;;16.43;;
73575;SDS011;61859;49.204;8.140;2024-01-11T12:13:16;23.53;;;14.40;;
73575;SDS011;61859;49.204;8.140;2024-01-11T12:15:43;25.93;;;14.87;;
73575;SDS011;61859;49.204;8.140;2024-01-11T12:18:08;23.93;;;13.90;;
73575;SDS011;61859;49.204;8.140;2024-01-11T12:20:34;24.13;;;14.20;;
73575;SDS011;61859;49.204;8.140;2024-01-11T12:23:00;24.27;;;15.27;;
73575;SDS011;61859;49.204;8.140;2024-01-11T12:25:27;25.23;;;14.40;;
73575;SDS011;61859;49.204;8.140;2024-01-11T12:27:53;24.77;;;15.20;;
73575;SDS011;61859;49.204;8.140;2024-01-11T12:30:21;23.40;;;14.90;;
73575;SDS011;61859;49.204;8.140;2024-01-11T12:32:48;25.43;;;14.07;;
73575;SDS011;61859;49.204;8.140;2024-01-11T12:35:15;25.90;;;14.83;;
73575;SDS011;61859;49.204;8.140;2024-01-11T12:37:52;24.60;;;15.17;;
73575;SDS011;61859;49.204;8.140;2024-01-11T12:40:18;21.80;;;14.43;;
73575;SDS011;61859;49.204;8.140;2024-01-11T12:42:44;27.93;;;16.00;;
73575;SDS011;61859;49.204;8.140;2024-01-11T12:45:09;23.53;;;14.17;;
73575;SDS011;61859;49.204;8.140;2024-01-11T12:47:35;26.97;;;15.00;;
73575;SDS011;61859;49.204;8.140;2024-01-11T12:50:02;26.13;;;15.10;;
73575;SDS011;61859;49.204;8.140;2024-01-11T12:52:28;24.30;;;15.20;;
73575;SDS011;61859;49.204;8.140;2024-01-11T12:54:55;24.93;;;14.93;;
73575;SDS011;61859;49.204;8.140;2024-01-11T12:57:21;26.53;;;16.57;;
73575;SDS011;61859;49.204;8.140;2024-01-11T12:59:47;26.80;;;15.70;;
73575;SDS011;61859;49.204;8.140;2024-01-11T13:02:13;24.43;;;15.70;;
73575;SDS011;61859;49.204;8.140;2024-01-11T13:04:40;28.23;;;14.60;;
73575;SDS011;61859;49.204;8.140;2024-01-11T13:07:09;22.23;;;14.67;;
73575;SDS011;61859;49.204;8.140;2024-01-11T13:09:36;23.97;;;15.80;;
73575;SDS011;61859;49.204;8.140;2024-01-11T13:12:02;27.33;;;15.60;;
73575;SDS011;61859;49.204;8.140;2024-01-11T13:14:28;25.03;;;14.60;;
73575;SDS011;61859;49.204;8.140;2024-01-11T13:16:54;22.80;;;14.40;;
73575;SDS011;61859;49.204;8.140;2024-01-11T13:19:19;25.47;;;15.17;;
73575;SDS011;61859;49.204;8.140;2024-01-11T13:21:45;24.17;;;15.63;;
73575;SDS011;61859;49.204;8.140;2024-01-11T13:24:10;24.00;;;15.00;;
73575;SDS011;61859;49.204;8.140;2024-01-11T13:26:37;21.10;;;14.27;;
73575;SDS011;61859;49.204;8.140;2024-01-11T13:29:04;21.73;;;14.67;;
73575;SDS011;61859;49.204;8.140;2024-01-11T13:31:33;24.27;;;15.93;;
73575;SDS011;61859;49.204;8.140;2024-01-11T13:33:58;25.23;;;15.73;;
73575;SDS011;61859;49.204;8.140;2024-01-11T13:36:24;25.70;;;15.27;;
73575;SDS011;61859;49.204;8.140;2024-01-11T13:38:50;24.77;;;17.10;;
73575;SDS011;61859;49.204;8.140;2024-01-11T13:41:16;22.13;;;14.97;;
73575;SDS011;61859;49.204;8.140;2024-01-11T13:43:42;22.03;;;15.47;;
73575;SDS011;61859;49.204;8.140;2024-01-11T13:46:08;23.47;;;14.30;;
73575;SDS011;61859;49.204;8.140;2024-01-11T13:48:34;27.70;;;16.60;;
73575;SDS011;61859;49.204;8.140;2024-01-11T13:51:00;21.87;;;14.07;;
73575;SDS011;61859;49.204;8.140;2024-01-11T13:53:27;23.90;;;14.57;;
73575;SDS011;61859;49.204;8.140;2024-01-11T13:55:53;22.53;;;13.93;;
73575;SDS011;61859;49.204;8.140;2024-01-11T13:58:19;19.97;;;14.13;;
73575;SDS011;61859;49.204;8.140;2024-01-11T14:00:44;21.93;;;13.73;;
73575;SDS011;61859;49.204;8.140;2024-01-11T14:03:10;24.73;;;14.67;;
73575;SDS011;61859;49.204;8.140;2024-01-11T14:05:36;22.97;;;14.80;;
73575;SDS011;61859;49.204;8.140;2024-01-11T14:08:02;23.73;;;15.27;;
73575;SDS011;61859;49.204;8.140;2024-01-11T14:10:30;22.27;;;14.20;;
73575;SDS011;61859;49.204;8.140;2024-01-11T14:12:57;23.97;;;14.50;;
73575;SDS011;61859;49.204;8.140;2024-01-11T14:15:23;21.50;;;13.27;;
73575;SDS011;61859;49.204;8.140;2024-01-11T14:17:49;22.37;;;14.10;;
73575;SDS011;61859;49.204;8.140;2024-01-11T14:20:15;21.27;;;13.30;;